createdAt,value
2016-12-11T00:00:05.670Z,25.84
2016-12-11T00:01:15.333Z,25.55
2016-12-11T00:02:25.300Z,25.74
2016-12-11T00:03:35.229Z,25.64
2016-12-11T00:04:45.164Z,25.64
2016-12-11T00:05:54.797Z,25.74
2016-12-11T00:07:04.742Z,25.74
2016-12-11T00:08:14.736Z,25.74
2016-12-11T00:09:24.665Z,25.64
2016-12-11T00:10:34.301Z,25.74
2016-12-11T00:11:44.537Z,25.74
2016-12-11T00:12:53.556Z,25.74
2016-12-11T00:14:03.495Z,25.74
2016-12-11T00:15:13.108Z,25.64
2016-12-11T00:16:23.054Z,25.84
2016-12-11T00:17:32.378Z,25.74
2016-12-11T00:18:42.004Z,25.74
2016-12-11T00:19:51.944Z,25.74
2016-12-11T00:21:01.253Z,25.74
2016-12-11T00:22:10.887Z,25.74
2016-12-11T00:23:20.824Z,25.64
2016-12-11T00:24:30.140Z,25.74
2016-12-11T00:25:39.766Z,25.74
2016-12-11T00:26:49.376Z,25.74
2016-12-11T00:27:58.684Z,25.74
2016-12-11T00:29:08.627Z,25.74
2016-12-11T00:30:18.268Z,25.74
2016-12-11T00:31:27.583Z,25.74
2016-12-11T00:32:36.594Z,25.84
2016-12-11T00:33:46.843Z,25.84
2016-12-11T00:34:56.161Z,25.84
2016-12-11T00:36:05.788Z,25.74
2016-12-11T00:37:16.024Z,25.64
2016-12-11T00:38:25.343Z,25.74
2016-12-11T00:39:34.974Z,25.74
2016-12-11T00:40:45.203Z,25.93
2016-12-11T00:41:55.438Z,26.03
2016-12-11T00:43:05.057Z,25.93
2016-12-11T00:44:14.385Z,26.12
2016-12-11T00:45:23.388Z,26.12
2016-12-11T00:46:32.399Z,25.93
2016-12-11T00:47:41.768Z,26.03
2016-12-11T00:48:51.732Z,26.03
2016-12-11T00:50:01.362Z,25.93
2016-12-11T00:51:11.014Z,26.12
2016-12-11T00:52:21.253Z,26.22
2016-12-11T00:53:31.181Z,26.12
2016-12-11T00:54:41.434Z,26.03
2016-12-11T00:55:51.390Z,26.32
2016-12-11T00:57:01.018Z,26.32
2016-12-11T00:58:10.681Z,26.32
2016-12-11T00:59:20.003Z,26.22
2016-12-11T01:00:29.653Z,26.22
2016-12-11T01:01:38.997Z,26.32
2016-12-11T01:02:48.945Z,26.12
2016-12-11T01:03:58.581Z,26.03
2016-12-11T01:05:08.531Z,26.22
2016-12-11T01:06:18.773Z,26.32
2016-12-11T01:07:28.714Z,26.12
2016-12-11T01:08:38.361Z,26.22
2016-12-11T01:09:47.978Z,26.12
2016-12-11T01:10:57.910Z,26.22
2016-12-11T01:12:08.221Z,26.22
2016-12-11T01:13:18.467Z,25.93
2016-12-11T01:14:27.787Z,26.22
2016-12-11T01:15:37.415Z,26.12
2016-12-11T01:16:47.341Z,26.32
2016-12-11T01:17:57.288Z,26.32
2016-12-11T01:19:07.236Z,25.93
2016-12-11T01:20:17.186Z,26.22
2016-12-11T01:21:27.424Z,26.03
2016-12-11T01:22:37.384Z,26.22
2016-12-11T01:23:47.005Z,26.22
2016-12-11T01:24:57.254Z,26.32
2016-12-11T01:26:07.500Z,26.12
2016-12-11T01:27:17.763Z,26.22
2016-12-11T01:28:28.021Z,26.12
2016-12-11T01:29:37.961Z,26.12
2016-12-11T01:30:47.889Z,26.12
2016-12-11T01:31:57.829Z,26.12
2016-12-11T01:33:08.080Z,26.22
2016-12-11T01:34:18.336Z,26.22
2016-12-11T01:35:28.575Z,26.32
2016-12-11T01:36:37.882Z,26.22
2016-12-11T01:37:47.507Z,26.22
2016-12-11T01:38:57.133Z,26.22
2016-12-11T01:40:07.090Z,26.22
2016-12-11T01:41:16.717Z,26.03
2016-12-11T01:42:26.658Z,26.22
2016-12-11T01:43:35.967Z,26.32
2016-12-11T01:44:45.903Z,26.12
2016-12-11T01:45:56.140Z,26.22
2016-12-11T01:47:06.066Z,26.12
2016-12-11T01:48:15.997Z,26.32
2016-12-11T01:49:25.615Z,26.32
2016-12-11T01:50:34.924Z,26.03
2016-12-11T01:51:44.861Z,26.22
2016-12-11T01:52:54.501Z,26.12
2016-12-11T01:54:04.124Z,26.03
2016-12-11T01:55:14.047Z,26.22
2016-12-11T01:56:23.376Z,26.12
2016-12-11T01:57:33.314Z,26.22
2016-12-11T01:58:43.349Z,26.22
2016-12-11T01:59:52.969Z,26.12
2016-12-11T02:01:02.281Z,26.22
2016-12-11T02:02:11.916Z,26.32
2016-12-11T02:03:21.845Z,26.12
2016-12-11T02:04:31.784Z,26.12
2016-12-11T02:05:41.452Z,26.22
2016-12-11T02:06:51.369Z,26.22
2016-12-11T02:08:01.309Z,26.22
2016-12-11T02:09:10.940Z,26.22
2016-12-11T02:10:20.885Z,26.22
2016-12-11T02:11:30.835Z,26.22
2016-12-11T02:12:41.080Z,26.22
2016-12-11T02:13:50.721Z,26.12
2016-12-11T02:15:00.345Z,26.22
2016-12-11T02:16:10.307Z,26.22
2016-12-11T02:17:19.926Z,26.22
2016-12-11T02:18:30.159Z,26.22
2016-12-11T02:19:39.778Z,26.22
2016-12-11T02:20:50.018Z,26.22
2016-12-11T02:21:59.689Z,26.22
2016-12-11T02:23:09.312Z,26.22
2016-12-11T02:24:19.575Z,26.12
2016-12-11T02:25:29.835Z,26.12
2016-12-11T02:26:39.468Z,26.32
2016-12-11T02:27:48.778Z,26.22
2016-12-11T02:28:59.020Z,26.22
2016-12-11T02:30:08.649Z,26.32
2016-12-11T02:31:18.260Z,26.22
2016-12-11T02:32:28.184Z,26.32
2016-12-11T02:33:38.115Z,26.32
2016-12-11T02:34:48.351Z,26.32
2016-12-11T02:35:57.357Z,26.32
2016-12-11T02:37:07.289Z,26.22
2016-12-11T02:38:16.903Z,26.22
2016-12-11T02:39:26.536Z,26.32
2016-12-11T02:40:36.477Z,26.32
2016-12-11T02:41:46.116Z,26.22
2016-12-11T02:42:55.433Z,26.22
2016-12-11T02:44:05.051Z,26.22
2016-12-11T02:45:14.999Z,26.22
2016-12-11T02:46:24.627Z,26.22
2016-12-11T02:47:34.268Z,26.12
2016-12-11T02:48:44.195Z,26.03
2016-12-11T02:49:54.144Z,26.12
2016-12-11T02:51:04.385Z,26.22
2016-12-11T02:52:14.326Z,26.22
2016-12-11T02:53:24.577Z,26.22
2016-12-11T02:54:33.894Z,26.22
2016-12-11T02:55:43.823Z,26.22
2016-12-11T02:56:53.130Z,26.22
2016-12-11T02:58:03.065Z,26.32
2016-12-11T02:59:12.706Z,26.22
2016-12-11T03:00:22.638Z,26.32
2016-12-11T03:01:32.573Z,26.22
2016-12-11T03:02:41.576Z,26.22
2016-12-11T03:03:51.836Z,26.22
2016-12-11T03:05:02.111Z,26.22
2016-12-11T03:06:12.044Z,26.22
2016-12-11T03:07:22.300Z,26.22
2016-12-11T03:08:32.235Z,26.22
2016-12-11T03:09:41.876Z,26.22
2016-12-11T03:10:51.808Z,26.22
2016-12-11T03:12:01.755Z,26.22
2016-12-11T03:13:11.073Z,26.03
2016-12-11T03:14:20.698Z,26.12
2016-12-11T03:15:30.314Z,26.32
2016-12-11T03:16:40.552Z,26.32
2016-12-11T03:17:50.510Z,26.22
2016-12-11T03:19:00.754Z,26.22
2016-12-11T03:20:10.988Z,26.32
2016-12-11T03:21:20.310Z,26.03
2016-12-11T03:22:30.551Z,26.22
2016-12-11T03:23:40.794Z,26.22
2016-12-11T03:24:51.051Z,26.22
2016-12-11T03:26:00.363Z,26.12
2016-12-11T03:27:09.985Z,26.22
2016-12-11T03:28:19.922Z,26.12
2016-12-11T03:29:28.920Z,26.12
2016-12-11T03:30:37.930Z,26.12
2016-12-11T03:31:47.260Z,26.22
2016-12-11T03:32:57.520Z,26.22
2016-12-11T03:34:07.166Z,26.32
2016-12-11T03:35:16.788Z,26.32
2016-12-11T03:36:26.117Z,25.93
2016-12-11T03:37:36.056Z,26.12
2016-12-11T03:38:45.373Z,26.32
2016-12-11T03:39:55.324Z,26.22
2016-12-11T03:41:04.963Z,26.32
2016-12-11T03:42:15.214Z,26.32
2016-12-11T03:43:25.138Z,26.32
2016-12-11T03:44:35.097Z,26.22
2016-12-11T03:45:44.731Z,26.32
2016-12-11T03:46:54.355Z,26.32
2016-12-11T03:48:04.584Z,26.32
2016-12-11T03:49:14.831Z,25.93
2016-12-11T03:50:24.142Z,26.22
2016-12-11T03:51:34.372Z,26.32
2016-12-11T03:52:44.003Z,26.12
2016-12-11T03:53:53.934Z,26.22
2016-12-11T03:55:03.867Z,26.12
2016-12-11T03:56:13.499Z,26.12
2016-12-11T03:57:23.415Z,26.03
2016-12-11T03:58:33.364Z,26.12
2016-12-11T03:59:42.989Z,26.03
2016-12-11T04:00:52.619Z,26.12
2016-12-11T04:02:01.931Z,26.03
2016-12-11T04:03:11.867Z,25.93
2016-12-11T04:04:21.517Z,26.12
2016-12-11T04:05:31.138Z,25.93
2016-12-11T04:06:41.382Z,26.12
2016-12-11T04:07:51.322Z,26.12
2016-12-11T04:09:01.572Z,26.03
2016-12-11T04:10:11.223Z,25.93
2016-12-11T04:11:21.468Z,25.74
2016-12-11T04:12:31.089Z,25.93
2016-12-11T04:13:41.034Z,25.93
2016-12-11T04:14:50.979Z,25.74
2016-12-11T04:16:00.916Z,25.93
2016-12-11T04:17:09.933Z,25.93
2016-12-11T04:18:19.240Z,25.93
2016-12-11T04:19:29.161Z,25.74
2016-12-11T04:20:39.111Z,25.84
2016-12-11T04:21:49.389Z,25.84
2016-12-11T04:22:59.645Z,25.93
2016-12-11T04:24:09.275Z,25.84
2016-12-11T04:25:18.592Z,25.74
2016-12-11T04:26:28.522Z,25.84
2016-12-11T04:27:38.148Z,25.74
2016-12-11T04:28:47.468Z,25.74
2016-12-11T04:29:56.468Z,25.74
2016-12-11T04:31:06.410Z,25.74
2016-12-11T04:32:16.653Z,25.74
2016-12-11T04:33:26.279Z,25.74
2016-12-11T04:34:35.894Z,25.74
2016-12-11T04:35:45.521Z,25.74
2016-12-11T04:36:55.465Z,25.74
2016-12-11T04:38:05.092Z,25.64
2016-12-11T04:39:15.328Z,25.74
2016-12-11T04:40:24.640Z,25.74
2016-12-11T04:41:34.578Z,25.74
2016-12-11T04:42:43.578Z,25.74
2016-12-11T04:43:53.498Z,25.74
2016-12-11T04:45:03.428Z,25.74
2016-12-11T04:46:13.051Z,25.74
2016-12-11T04:47:22.672Z,25.64
2016-12-11T04:48:31.978Z,25.74
2016-12-11T04:49:42.207Z,25.74
2016-12-11T04:50:51.830Z,25.64
2016-12-11T04:52:01.458Z,25.74
2016-12-11T04:53:11.697Z,25.84
2016-12-11T04:54:21.632Z,25.74
2016-12-11T04:55:31.266Z,25.64
2016-12-11T04:56:41.505Z,25.64
2016-12-11T04:57:51.761Z,25.74
2016-12-11T04:59:02.002Z,25.64
2016-12-11T05:00:11.625Z,25.74
2016-12-11T05:01:21.552Z,25.74
2016-12-11T05:02:31.172Z,25.84
2016-12-11T05:03:41.427Z,25.74
2016-12-11T05:04:51.689Z,25.84
2016-12-11T05:06:00.998Z,25.55
2016-12-11T05:07:10.327Z,25.84
2016-12-11T05:08:20.283Z,25.74
2016-12-11T05:09:30.201Z,25.74
2016-12-11T05:10:40.119Z,25.84
2016-12-11T05:11:50.040Z,25.74
2016-12-11T05:12:59.973Z,25.74
2016-12-11T05:14:09.288Z,25.74
2016-12-11T05:15:18.929Z,25.84
2016-12-11T05:16:28.861Z,26.12
2016-12-11T05:17:38.512Z,26.12
2016-12-11T05:18:48.751Z,26.12
2016-12-11T05:19:58.401Z,26.22
2016-12-11T05:21:08.328Z,26.22
2016-12-11T05:22:18.259Z,26.12
2016-12-11T05:23:28.496Z,26.22
2016-12-11T05:24:38.128Z,26.32
2016-12-11T05:25:48.380Z,26.12
2016-12-11T05:26:58.306Z,26.22
2016-12-11T05:28:08.548Z,26.22
2016-12-11T05:29:18.157Z,26.22
2016-12-11T05:30:28.396Z,26.32
2016-12-11T05:31:38.015Z,26.32
2016-12-11T05:32:47.635Z,26.42
2016-12-11T05:33:57.260Z,26.42
2016-12-11T05:35:07.493Z,26.32
2016-12-11T05:36:17.427Z,26.42
2016-12-11T05:37:27.336Z,26.42
2016-12-11T05:38:37.261Z,26.32
2016-12-11T05:39:46.885Z,26.32
2016-12-11T05:40:57.121Z,26.22
2016-12-11T05:42:07.064Z,26.32
2016-12-11T05:43:17.004Z,26.22
2016-12-11T05:44:26.933Z,26.22
2016-12-11T05:45:37.163Z,26.22
2016-12-11T05:46:46.790Z,26.12
2016-12-11T05:47:56.405Z,26.32
2016-12-11T05:49:06.030Z,26.03
2016-12-11T05:50:15.327Z,26.22
2016-12-11T05:51:25.251Z,26.32
2016-12-11T05:52:34.884Z,26.12
2016-12-11T05:53:44.523Z,26.12
2016-12-11T05:54:53.831Z,26.12
2016-12-11T05:56:03.458Z,26.12
2016-12-11T05:57:13.376Z,26.12
2016-12-11T05:58:23.630Z,26.12
2016-12-11T05:59:33.261Z,26.22
2016-12-11T06:00:42.887Z,26.03
2016-12-11T06:01:52.497Z,26.03
2016-12-11T06:03:01.497Z,26.12
2016-12-11T06:04:11.441Z,26.12
2016-12-11T06:05:21.369Z,26.32
2016-12-11T06:06:31.306Z,26.32
2016-12-11T06:07:41.258Z,26.21
2016-12-11T06:08:50.883Z,26.22
2016-12-11T06:10:00.184Z,26.12
2016-12-11T06:11:10.122Z,26.22
2016-12-11T06:12:19.744Z,26.22
2016-12-11T06:13:29.979Z,26.11
2016-12-11T06:14:39.281Z,26.12
2016-12-11T06:15:49.515Z,26.12
2016-12-11T06:16:59.459Z,26.12
2016-12-11T06:18:09.702Z,26.12
2016-12-11T06:19:19.329Z,26.03
2016-12-11T06:20:29.580Z,26.22
2016-12-11T06:21:39.527Z,26.12
2016-12-11T06:22:48.882Z,26.12
2016-12-11T06:23:58.548Z,26.22
2016-12-11T06:25:08.484Z,26.22
2016-12-11T06:26:17.805Z,26.11
2016-12-11T06:27:28.052Z,26.03
2016-12-11T06:28:37.686Z,26.12
2016-12-11T06:29:47.615Z,25.93
2016-12-11T06:30:57.544Z,26.12
2016-12-11T06:32:07.488Z,25.93
2016-12-11T06:33:17.097Z,25.93
2016-12-11T06:34:27.038Z,25.74
2016-12-11T06:35:36.976Z,26.03
2016-12-11T06:36:46.635Z,25.84
2016-12-11T06:37:56.244Z,25.93
2016-12-11T06:39:06.496Z,25.93
2016-12-11T06:40:16.103Z,25.93
2016-12-11T06:41:25.725Z,25.84
2016-12-11T06:42:35.965Z,25.84
2016-12-11T06:43:46.198Z,25.84
2016-12-11T06:44:56.456Z,25.93
2016-12-11T06:46:06.681Z,25.93
2016-12-11T06:47:16.305Z,26.03
2016-12-11T06:48:26.544Z,26.03
2016-12-11T06:49:35.846Z,25.84
2016-12-11T06:50:45.790Z,26.12
2016-12-11T06:51:56.039Z,26.03
2016-12-11T06:53:05.655Z,26.32
2016-12-11T06:54:15.583Z,26.22
2016-12-11T06:55:25.516Z,26.03
2016-12-11T06:56:35.430Z,26.03
2016-12-11T06:57:45.373Z,26.12
2016-12-11T06:58:54.693Z,26.12
2016-12-11T07:00:04.318Z,26.03
2016-12-11T07:01:14.257Z,26.22
2016-12-11T07:02:24.194Z,26.03
2016-12-11T07:03:34.141Z,26.03
2016-12-11T07:04:44.060Z,26.12
2016-12-11T07:05:53.358Z,26.32
2016-12-11T07:07:03.600Z,26.12
2016-12-11T07:08:13.535Z,26.03
2016-12-11T07:09:23.461Z,26.22
2016-12-11T07:10:33.703Z,26.12
2016-12-11T07:11:43.016Z,26.03
2016-12-11T07:12:52.640Z,25.93
2016-12-11T07:14:02.637Z,25.93
2016-12-11T07:15:12.564Z,26.03
2016-12-11T07:16:22.835Z,26.03
2016-12-11T07:17:32.766Z,26.03
2016-12-11T07:18:42.903Z,26.03
2016-12-11T07:19:52.844Z,25.93
2016-12-11T07:21:02.467Z,25.84
2016-12-11T07:22:12.395Z,25.84
2016-12-11T07:23:22.340Z,26.03
2016-12-11T07:24:32.268Z,26.03
2016-12-11T07:25:41.902Z,25.64
2016-12-11T07:26:52.379Z,25.74
2016-12-11T07:28:02.317Z,25.84
2016-12-11T07:29:11.315Z,25.74
2016-12-11T07:30:20.934Z,25.74
2016-12-11T07:31:30.866Z,25.74
2016-12-11T07:32:40.194Z,25.74
2016-12-11T07:33:50.447Z,25.74
2016-12-11T07:34:59.761Z,25.74
2016-12-11T07:36:09.076Z,25.84
2016-12-11T07:37:18.737Z,25.74
2016-12-11T07:38:28.044Z,25.74
2016-12-11T07:39:37.984Z,25.84
2016-12-11T07:40:47.613Z,25.74
2016-12-11T07:41:57.581Z,25.84
2016-12-11T07:43:07.821Z,25.74
2016-12-11T07:44:18.068Z,25.93
2016-12-11T07:45:28.318Z,25.84
2016-12-11T07:46:37.943Z,25.84
2016-12-11T07:47:47.878Z,25.93
2016-12-11T07:48:58.128Z,25.93
2016-12-11T07:50:08.394Z,26.03
2016-12-11T07:51:17.751Z,26.03
2016-12-11T07:52:27.382Z,26.03
2016-12-11T07:53:37.001Z,25.74
2016-12-11T07:54:46.631Z,25.93
2016-12-11T07:55:56.906Z,25.74
2016-12-11T07:57:06.854Z,25.93
2016-12-11T07:58:17.128Z,26.03
2016-12-11T07:59:27.075Z,25.74
2016-12-11T08:00:37.012Z,25.93
2016-12-11T08:01:46.948Z,25.84
2016-12-11T08:02:56.579Z,25.74
2016-12-11T08:04:06.819Z,25.74
2016-12-11T08:05:17.069Z,25.84
2016-12-11T08:06:27.008Z,25.84
2016-12-11T08:07:36.631Z,25.84
2016-12-11T08:08:46.259Z,25.84
2016-12-11T08:09:56.505Z,25.84
2016-12-11T08:11:05.884Z,25.84
2016-12-11T08:12:15.823Z,25.64
2016-12-11T08:13:25.761Z,25.74
2016-12-11T08:14:35.091Z,25.74
2016-12-11T08:15:46.193Z,25.74
2016-12-11T08:16:55.818Z,25.64
2016-12-11T08:18:06.425Z,25.74
2016-12-11T08:19:15.747Z,25.74
2016-12-11T08:20:25.375Z,25.74
2016-12-11T08:21:35.299Z,25.74
2016-12-11T08:22:44.678Z,25.74
2016-12-11T08:23:54.298Z,25.74
2016-12-11T08:25:03.935Z,25.74
2016-12-11T08:26:14.184Z,25.84
2016-12-11T08:27:23.198Z,25.74
2016-12-11T08:28:33.135Z,25.93
2016-12-11T08:29:43.401Z,25.84
2016-12-11T08:30:53.037Z,25.84
2016-12-11T08:32:03.283Z,25.93
2016-12-11T08:33:13.509Z,26.03
2016-12-11T08:34:23.447Z,25.93
2016-12-11T08:35:33.111Z,25.93
2016-12-11T08:36:43.358Z,26.03
2016-12-11T08:37:52.993Z,26.03
2016-12-11T08:39:02.308Z,26.03
2016-12-11T08:40:11.954Z,25.84
2016-12-11T08:41:22.203Z,25.93
2016-12-11T08:42:32.157Z,26.12
2016-12-11T08:43:42.099Z,26.12
2016-12-11T08:44:52.032Z,26.12
2016-12-11T08:46:02.269Z,26.03
2016-12-11T08:47:11.891Z,26.32
2016-12-11T08:48:21.525Z,26.22
2016-12-11T08:49:31.154Z,26.12
2016-12-11T08:50:41.085Z,26.22
2016-12-11T08:51:50.718Z,26.32
2016-12-11T08:53:00.031Z,26.22
2016-12-11T08:54:10.276Z,26.22
2016-12-11T08:55:20.228Z,26.32
2016-12-11T08:56:30.456Z,26.12
2016-12-11T08:57:40.391Z,26.12
2016-12-11T08:58:50.044Z,26.12
2016-12-11T09:00:00.285Z,26.22
2016-12-11T09:01:09.919Z,26.32
2016-12-11T09:02:19.853Z,26.32
2016-12-11T09:03:29.482Z,26.32
2016-12-11T09:04:39.739Z,26.32
2016-12-11T09:05:49.678Z,26.12
2016-12-11T09:06:59.303Z,26.32
2016-12-11T09:08:09.240Z,26.22
2016-12-11T09:09:18.625Z,25.93
2016-12-11T09:10:28.247Z,26.32
2016-12-11T09:11:37.565Z,26.22
2016-12-11T09:12:48.032Z,25.93
2016-12-11T09:13:57.656Z,26.23
2016-12-11T09:15:07.596Z,26.22
2016-12-11T09:16:16.927Z,26.32
2016-12-11T09:17:26.549Z,26.22
2016-12-11T09:18:36.469Z,26.12
2016-12-11T09:19:46.398Z,26.22
2016-12-11T09:20:56.336Z,26.12
2016-12-11T09:22:06.581Z,26.22
2016-12-11T09:23:16.843Z,26.33
2016-12-11T09:24:26.471Z,26.22
2016-12-11T09:25:36.096Z,26.22
2016-12-11T09:26:46.036Z,26.32
2016-12-11T09:27:56.301Z,26.12
2016-12-11T09:29:06.232Z,26.32
2016-12-11T09:30:15.859Z,26.32
2016-12-11T09:31:25.804Z,26.12
2016-12-11T09:32:35.125Z,26.32
2016-12-11T09:33:44.763Z,26.32
2016-12-11T09:34:54.076Z,26.12
2016-12-11T09:36:04.050Z,26.03
2016-12-11T09:37:14.348Z,26.12
2016-12-11T09:38:23.975Z,26.12
2016-12-11T09:39:33.907Z,26.03
2016-12-11T09:40:43.542Z,26.03
2016-12-11T09:41:53.791Z,26.22
2016-12-11T09:43:03.726Z,26.32
2016-12-11T09:44:13.364Z,26.22
2016-12-11T09:45:22.981Z,26.03
2016-12-11T09:46:32.955Z,26.32
2016-12-11T09:47:42.585Z,26.32
2016-12-11T09:48:52.508Z,26.12
2016-12-11T09:50:02.131Z,26.12
2016-12-11T09:51:12.369Z,26.22
2016-12-11T09:52:21.671Z,26.22
2016-12-11T09:53:31.623Z,26.22
2016-12-11T09:54:41.252Z,26.22
2016-12-11T09:55:50.870Z,26.22
2016-12-11T09:57:00.512Z,26.12
2016-12-11T09:58:10.459Z,26.22
2016-12-11T09:59:20.093Z,26.22
2016-12-11T10:00:29.722Z,26.22
2016-12-11T10:01:39.983Z,26.22
2016-12-11T10:02:49.608Z,26.22
2016-12-11T10:03:59.855Z,26.32
2016-12-11T10:05:09.791Z,26.22
2016-12-11T10:06:19.123Z,26.22
2016-12-11T10:07:28.757Z,26.22
2016-12-11T10:08:38.714Z,26.22
2016-12-11T10:09:48.341Z,26.22
2016-12-11T10:10:58.277Z,26.22
2016-12-11T10:12:08.223Z,26.22
2016-12-11T10:13:18.149Z,26.22
2016-12-11T10:14:27.785Z,26.22
2016-12-11T10:15:37.426Z,26.22
2016-12-11T10:16:47.671Z,26.03
2016-12-11T10:17:57.927Z,26.22
2016-12-11T10:19:07.874Z,26.22
2016-12-11T10:20:17.825Z,26.03
2016-12-11T10:21:28.064Z,26.32
2016-12-11T10:22:38.336Z,26.03
2016-12-11T10:23:48.580Z,26.12
2016-12-11T10:24:58.885Z,26.03
2016-12-11T10:26:08.507Z,26.22
2016-12-11T10:27:18.159Z,25.93
2016-12-11T10:28:28.438Z,26.22
2016-12-11T10:29:37.750Z,26.22
2016-12-11T10:30:47.461Z,26.22
2016-12-11T10:31:57.705Z,26.12
2016-12-11T10:33:07.337Z,26.12
2016-12-11T10:34:17.300Z,26.03
2016-12-11T10:35:26.929Z,25.93
2016-12-11T10:36:36.864Z,25.93
2016-12-11T10:37:46.802Z,25.84
2016-12-11T10:38:56.419Z,26.03
2016-12-11T10:40:06.356Z,25.93
2016-12-11T10:41:15.668Z,25.74
2016-12-11T10:42:25.608Z,25.64
2016-12-11T10:43:35.564Z,25.64
2016-12-11T10:44:45.807Z,25.74
2016-12-11T10:45:55.443Z,25.74
2016-12-11T10:47:05.085Z,25.84
2016-12-11T10:48:14.726Z,25.93
2016-12-11T10:49:24.381Z,25.84
2016-12-11T10:50:34.012Z,25.93
2016-12-11T10:51:44.278Z,25.93
2016-12-11T10:52:54.214Z,26.03
2016-12-11T10:54:04.183Z,26.03
2016-12-11T10:55:13.814Z,26.03
2016-12-11T10:56:23.432Z,25.93
2016-12-11T10:57:33.066Z,25.74
2016-12-11T10:58:42.997Z,26.12
2016-12-11T10:59:52.939Z,25.74
2016-12-11T11:01:02.249Z,25.74
2016-12-11T11:02:12.203Z,25.74
2016-12-11T11:03:22.133Z,25.74
2016-12-11T11:04:32.084Z,25.45
2016-12-11T11:05:42.036Z,25.74
2016-12-11T11:06:52.302Z,25.74
2016-12-11T11:08:02.302Z,25.84
2016-12-11T11:09:12.283Z,25.64
2016-12-11T11:10:21.941Z,25.64
2016-12-11T11:11:32.226Z,25.64
2016-12-11T11:12:42.201Z,25.64
2016-12-11T11:13:52.165Z,25.55
2016-12-11T11:15:01.829Z,25.64
2016-12-11T11:16:12.111Z,25.35
2016-12-11T11:17:22.095Z,25.45
2016-12-11T11:18:32.358Z,25.35
2016-12-11T11:19:42.630Z,25.35
2016-12-11T11:20:52.918Z,25.26
2016-12-11T11:22:02.895Z,25.35
2016-12-11T11:23:12.579Z,25.26
2016-12-11T11:24:22.854Z,25.26
2016-12-11T11:25:32.528Z,25.16
2016-12-11T11:26:42.812Z,25.16
2016-12-11T11:27:52.787Z,25.16
2016-12-11T11:29:02.758Z,25.26
2016-12-11T11:30:12.779Z,25.45
2016-12-11T11:31:23.049Z,25.45
2016-12-11T11:32:33.319Z,25.26
2016-12-11T11:33:43.291Z,25.35
2016-12-11T11:34:53.256Z,25.45
2016-12-11T11:36:03.225Z,24.87
2016-12-11T11:37:13.530Z,24.97
2016-12-11T11:38:23.800Z,24.87
2016-12-11T11:39:34.085Z,25.45
2016-12-11T11:40:44.352Z,24.97
2016-12-11T11:41:54.628Z,24.97
2016-12-11T11:43:04.600Z,24.87
2016-12-11T11:44:14.598Z,25.07
2016-12-11T11:45:24.255Z,25.07
2016-12-11T11:46:34.581Z,24.97
2016-12-11T11:47:44.546Z,25.07
2016-12-11T11:48:54.528Z,25.16
2016-12-11T11:50:04.805Z,25.07
2016-12-11T11:51:14.773Z,25.07
2016-12-11T11:52:25.050Z,25.07
2016-12-11T11:53:35.329Z,25.07
2016-12-11T11:54:44.984Z,25.16
2016-12-11T11:55:55.263Z,25.16
2016-12-11T11:57:05.528Z,25.16
2016-12-11T11:58:15.807Z,25.16
2016-12-11T11:59:25.785Z,25.16
2016-12-11T12:00:35.767Z,25.16
2016-12-11T12:01:45.733Z,25.26
2016-12-11T12:02:55.404Z,25.26
2016-12-11T12:04:05.672Z,25.16
2016-12-11T12:05:15.321Z,24.87
2016-12-11T12:06:25.275Z,24.87
2016-12-11T12:07:34.926Z,24.87
2016-12-11T12:08:45.214Z,24.97
2016-12-11T12:09:55.169Z,25.07
2016-12-11T12:11:05.143Z,24.97
2016-12-11T12:12:15.118Z,24.87
2016-12-11T12:13:25.389Z,24.87
2016-12-11T12:14:35.341Z,24.87
2016-12-11T12:15:45.598Z,24.87
2016-12-11T12:16:55.566Z,24.97
2016-12-11T12:18:05.838Z,24.97
2016-12-11T12:19:15.508Z,25.07
2016-12-11T12:20:25.476Z,25.07
2016-12-11T12:21:35.757Z,24.97
2016-12-11T12:22:45.726Z,24.97
2016-12-11T12:23:55.977Z,24.87
2016-12-11T12:25:06.243Z,25.07
2016-12-11T12:26:16.225Z,24.87
2016-12-11T12:27:26.592Z,24.87
2016-12-11T12:28:36.861Z,25.07
2016-12-11T12:29:46.184Z,25.07
2016-12-11T12:30:55.223Z,24.97
2016-12-11T12:32:05.487Z,24.77
2016-12-11T12:33:15.457Z,24.97
2016-12-11T12:34:25.731Z,24.68
2016-12-11T12:35:35.375Z,24.77
2016-12-11T12:36:45.023Z,24.97
2016-12-11T12:37:54.991Z,24.97
2016-12-11T12:39:05.269Z,24.68
2016-12-11T12:40:15.230Z,24.97
2016-12-11T12:41:25.194Z,24.68
2016-12-11T12:42:35.165Z,24.77
2016-12-11T12:43:45.140Z,24.77
2016-12-11T12:44:55.427Z,24.87
2016-12-11T12:46:05.714Z,24.77
2016-12-11T12:47:15.669Z,24.87
2016-12-11T12:48:25.948Z,24.77
2016-12-11T12:49:35.616Z,24.77
2016-12-11T12:50:45.597Z,24.87
2016-12-11T12:51:55.884Z,24.77
2016-12-11T12:53:05.527Z,24.77
2016-12-11T12:54:15.795Z,24.87
2016-12-11T12:55:26.068Z,24.77
2016-12-11T12:56:36.344Z,24.77
2016-12-11T12:57:45.984Z,24.77
2016-12-11T12:58:55.962Z,24.68
2016-12-11T13:00:06.247Z,24.77
2016-12-11T13:01:15.903Z,24.77
2016-12-11T13:02:26.177Z,24.87
2016-12-11T13:03:36.419Z,24.77
2016-12-11T13:04:46.067Z,24.68
2016-12-11T13:05:56.329Z,24.77
2016-12-11T13:07:06.617Z,24.87
2016-12-11T13:08:16.903Z,24.87
2016-12-11T13:09:26.888Z,24.77
2016-12-11T13:10:37.150Z,24.77
2016-12-11T13:11:47.419Z,24.77
2016-12-11T13:12:57.385Z,24.77
2016-12-11T13:14:07.676Z,24.77
2016-12-11T13:15:17.623Z,24.87
2016-12-11T13:16:27.872Z,24.87
2016-12-11T13:17:38.125Z,24.77
2016-12-11T13:18:48.059Z,24.87
2016-12-11T13:19:57.688Z,24.68
2016-12-11T13:21:07.352Z,24.77
2016-12-11T13:22:17.328Z,24.77
2016-12-11T13:23:27.303Z,24.87
2016-12-11T13:24:37.582Z,24.87
2016-12-11T13:25:47.547Z,24.87
2016-12-11T13:26:57.854Z,24.77
2016-12-11T13:28:07.502Z,24.77
2016-12-11T13:29:17.169Z,24.87
2016-12-11T13:30:27.448Z,24.87
2016-12-11T13:31:37.441Z,24.77
2016-12-11T13:32:47.726Z,24.77
2016-12-11T13:33:58.003Z,24.77
2016-12-11T13:35:08.298Z,24.77
2016-12-11T13:36:18.564Z,24.87
2016-12-11T13:37:28.850Z,24.77
2016-12-11T13:38:39.115Z,24.77
2016-12-11T13:39:49.407Z,24.68
2016-12-11T13:40:59.367Z,24.77
2016-12-11T13:42:09.645Z,24.77
2016-12-11T13:43:19.934Z,24.77
2016-12-11T13:44:29.600Z,25.07
2016-12-11T13:45:39.888Z,24.68
2016-12-11T13:46:50.167Z,24.77
2016-12-11T13:48:00.121Z,24.97
2016-12-11T13:49:09.802Z,24.77
2016-12-11T13:50:19.800Z,24.68
2016-12-11T13:51:30.067Z,24.68
2016-12-11T13:52:40.033Z,24.97
2016-12-11T13:53:50.304Z,24.87
2016-12-11T13:55:00.573Z,24.68
2016-12-11T13:56:10.552Z,24.77
2016-12-11T13:57:20.823Z,24.68
2016-12-11T13:58:31.095Z,24.97
2016-12-11T13:59:41.384Z,24.97
2016-12-11T14:00:51.338Z,24.77
2016-12-11T14:02:01.382Z,24.87
2016-12-11T14:03:11.669Z,24.97
2016-12-11T14:04:21.326Z,24.97
2016-12-11T14:05:31.596Z,24.97
2016-12-11T14:06:40.943Z,24.97
2016-12-11T14:07:50.923Z,24.87
2016-12-11T14:09:01.194Z,24.97
2016-12-11T14:10:11.491Z,24.97
2016-12-11T14:11:21.757Z,25.07
2016-12-11T14:12:32.024Z,24.87
2016-12-11T14:13:41.673Z,24.97
2016-12-11T14:14:51.979Z,25.16
2016-12-11T14:16:01.955Z,24.97
2016-12-11T14:17:11.934Z,24.87
2016-12-11T14:18:21.902Z,24.97
2016-12-11T14:19:31.918Z,24.97
2016-12-11T14:20:41.875Z,24.97
2016-12-11T14:21:52.145Z,24.97
2016-12-11T14:23:01.797Z,25.07
2016-12-11T14:24:11.453Z,24.97
2016-12-11T14:25:21.420Z,24.97
2016-12-11T14:26:30.787Z,24.97
2016-12-11T14:27:40.453Z,24.87
2016-12-11T14:28:50.719Z,24.96
2016-12-11T14:30:00.367Z,24.97
2016-12-11T14:31:10.641Z,24.97
2016-12-11T14:32:20.633Z,24.87
2016-12-11T14:33:30.925Z,24.87
2016-12-11T14:34:41.204Z,24.87
2016-12-11T14:35:50.867Z,25.07
2016-12-11T14:37:01.146Z,24.86
2016-12-11T14:38:11.429Z,24.87
2016-12-11T14:39:21.380Z,24.97
2016-12-11T14:40:31.344Z,24.87
2016-12-11T14:41:41.652Z,24.87
2016-12-11T14:42:50.987Z,24.87
2016-12-11T14:44:01.267Z,24.97
2016-12-11T14:45:11.534Z,24.97
2016-12-11T14:46:21.797Z,24.87
2016-12-11T14:47:32.082Z,24.97
2016-12-11T14:48:42.390Z,24.97
2016-12-11T14:49:52.663Z,24.96
2016-12-11T14:51:02.949Z,24.97
2016-12-11T14:53:11.346Z,25.07
2016-12-11T14:54:21.625Z,24.77
2016-12-11T14:55:31.926Z,24.87
2016-12-11T14:56:42.221Z,24.87
2016-12-11T14:57:52.187Z,24.87
2016-12-11T14:59:02.164Z,24.87
2016-12-11T15:00:12.144Z,25.07